QLK488D YBCS-YHID
Flight info
| Callsign | QLK488D |
|---|---|
| Flight time | 1h 31m |
| Altitude | 24000 |
| Route | CS R204 HID |
| Aircraft | DH8D/M-SDE2E3FGRY/H |
Departure
| Time | 2026-04-28 21:41 |
|---|---|
| Airport | Cairns International Airport (YBCS) |
Arrival
| Time | 2026-04-28 23:12 |
|---|---|
| Airport | Horn Island Airport (YHID) |
| Time | Latitude | Longitude | Altitude | Speed | Heading |
|---|---|---|---|---|---|
| 2026-04-28 21:08 | -16.87555 | 145.75160 | 19 ft | 0 kts | 66° |
| 2026-04-28 21:32 | -16.87554 | 145.75160 | 19 ft | 0 kts | 66° |
| 2026-04-28 21:34 | -16.87554 | 145.75162 | 19 ft | 1 kts | 66° |
| 2026-04-28 21:34 | -16.87543 | 145.75174 | 20 ft | 3 kts | 11° |
| 2026-04-28 21:34 | -16.87542 | 145.75145 | 19 ft | 7 kts | 246° |
| 2026-04-28 21:34 | -16.87545 | 145.75098 | 17 ft | 6 kts | 320° |
| 2026-04-28 21:35 | -16.87504 | 145.75076 | 17 ft | 7 kts | 336° |
| 2026-04-28 21:35 | -16.87443 | 145.75049 | 18 ft | 10 kts | 337° |
| 2026-04-28 21:35 | -16.87369 | 145.75015 | 18 ft | 12 kts | 333° |
| 2026-04-28 21:35 | -16.87312 | 145.74944 | 19 ft | 13 kts | 291° |
| 2026-04-28 21:36 | -16.87255 | 145.74860 | 20 ft | 12 kts | 332° |
| 2026-04-28 21:36 | -16.87188 | 145.74828 | 20 ft | 11 kts | 337° |
| 2026-04-28 21:36 | -16.87105 | 145.74791 | 20 ft | 14 kts | 337° |
| 2026-04-28 21:36 | -16.87046 | 145.74725 | 19 ft | 10 kts | 271° |
| 2026-04-28 21:37 | -16.87055 | 145.74695 | 20 ft | 0 kts | 246° |
| 2026-04-28 21:37 | -16.87055 | 145.74693 | 20 ft | 0 kts | 246° |
| 2026-04-28 21:37 | -16.87061 | 145.74678 | 20 ft | 4 kts | 246° |
| 2026-04-28 21:38 | -16.87078 | 145.74638 | 20 ft | 8 kts | 249° |
| 2026-04-28 21:38 | -16.87058 | 145.74576 | 20 ft | 11 kts | 323° |
| 2026-04-28 21:38 | -16.86978 | 145.74536 | 21 ft | 14 kts | 336° |
| 2026-04-28 21:38 | -16.86876 | 145.74490 | 21 ft | 17 kts | 336° |
| 2026-04-28 21:39 | -16.86758 | 145.74437 | 21 ft | 19 kts | 336° |
| 2026-04-28 21:39 | -16.86656 | 145.74403 | 22 ft | 10 kts | 19° |
| 2026-04-28 21:39 | -16.86595 | 145.74412 | 22 ft | 8 kts | 333° |
| 2026-04-28 21:39 | -16.86593 | 145.74367 | 22 ft | 5 kts | 201° |
| 2026-04-28 21:40 | -16.86609 | 145.74370 | 22 ft | 0 kts | 157° |
| 2026-04-28 21:40 | -16.86679 | 145.74377 | 22 ft | 21 kts | 181° |
| 2026-04-28 21:40 | -16.86752 | 145.74391 | 21 ft | 7 kts | 114° |
| 2026-04-28 21:40 | -16.86801 | 145.74454 | 21 ft | 15 kts | 155° |
| 2026-04-28 21:41 | -16.87175 | 145.74625 | 20 ft | 99 kts | 156° |
| 2026-04-28 21:41 | -16.87690 | 145.74857 | 21 ft | 138 kts | 158° |
| 2026-04-28 21:41 | -16.88643 | 145.75262 | 305 ft | 151 kts | 158° |
| 2026-04-28 21:41 | -16.90053 | 145.75797 | 806 ft | 175 kts | 159° |
| 2026-04-28 21:42 | -16.90764 | 145.76207 | 1223 ft | 173 kts | 137° |
| 2026-04-28 21:42 | -16.91287 | 145.77716 | 2023 ft | 177 kts | 85° |
| 2026-04-28 21:42 | -16.90713 | 145.78857 | 2491 ft | 189 kts | 48° |
| 2026-04-28 21:42 | -16.89498 | 145.79437 | 2932 ft | 204 kts | 12° |
| 2026-04-28 21:43 | -16.88038 | 145.79317 | 3405 ft | 212 kts | 357° |
| 2026-04-28 21:43 | -16.87067 | 145.79163 | 3759 ft | 211 kts | 357° |
| 2026-04-28 21:43 | -16.85127 | 145.78848 | 4461 ft | 212 kts | 357° |
| 2026-04-28 21:43 | -16.83670 | 145.78635 | 4980 ft | 210 kts | 1° |
| 2026-04-28 21:44 | -16.82211 | 145.78328 | 5444 ft | 219 kts | 338° |
| 2026-04-28 21:44 | -16.80939 | 145.77447 | 5940 ft | 222 kts | 328° |
| 2026-04-28 21:44 | -16.80113 | 145.76833 | 6265 ft | 222 kts | 329° |
| 2026-04-28 21:44 | -16.78414 | 145.75613 | 6926 ft | 222 kts | 330° |
| 2026-04-28 21:45 | -16.77547 | 145.75009 | 7262 ft | 221 kts | 330° |
| 2026-04-28 21:45 | -16.75831 | 145.73837 | 7879 ft | 223 kts | 331° |
| 2026-04-28 21:45 | -16.74531 | 145.72966 | 8354 ft | 222 kts | 331° |
| 2026-04-28 21:45 | -16.73219 | 145.72098 | 8830 ft | 222 kts | 331° |
| 2026-04-28 21:46 | -16.72356 | 145.71532 | 9130 ft | 222 kts | 331° |
| 2026-04-28 21:46 | -16.70621 | 145.70399 | 9737 ft | 221 kts | 332° |
| 2026-04-28 21:46 | -16.69307 | 145.69547 | 10180 ft | 221 kts | 331° |
| 2026-04-28 21:46 | -16.67985 | 145.68692 | 10615 ft | 221 kts | 330° |
| 2026-04-28 21:47 | -16.66676 | 145.67848 | 11016 ft | 222 kts | 330° |
| 2026-04-28 21:47 | -16.65363 | 145.67004 | 11422 ft | 222 kts | 329° |
| 2026-04-28 21:47 | -16.64040 | 145.66154 | 11812 ft | 222 kts | 328° |
| 2026-04-28 21:47 | -16.62731 | 145.65315 | 12183 ft | 222 kts | 328° |
| 2026-04-28 21:48 | -16.61406 | 145.64467 | 12520 ft | 223 kts | 327° |
| 2026-04-28 21:48 | -16.60080 | 145.63617 | 12883 ft | 223 kts | 327° |
| 2026-04-28 21:48 | -16.58751 | 145.62767 | 13227 ft | 223 kts | 326° |
| 2026-04-28 21:48 | -16.57429 | 145.61922 | 13531 ft | 225 kts | 326° |
| 2026-04-28 21:49 | -16.56090 | 145.61066 | 13842 ft | 226 kts | 326° |
| 2026-04-28 21:49 | -16.55180 | 145.60484 | 14020 ft | 227 kts | 326° |
| 2026-04-28 21:49 | -16.53387 | 145.59338 | 14399 ft | 229 kts | 326° |
| 2026-04-28 21:49 | -16.52022 | 145.58467 | 14718 ft | 229 kts | 326° |
| 2026-04-28 21:50 | -16.50651 | 145.57593 | 14975 ft | 230 kts | 326° |
| 2026-04-28 21:50 | -16.49274 | 145.56714 | 15218 ft | 232 kts | 326° |
| 2026-04-28 21:50 | -16.47902 | 145.55838 | 15505 ft | 232 kts | 326° |
| 2026-04-28 21:50 | -16.46502 | 145.54944 | 15721 ft | 235 kts | 326° |
| 2026-04-28 21:51 | -16.45121 | 145.54063 | 15993 ft | 235 kts | 326° |
| 2026-04-28 21:51 | -16.43712 | 145.53165 | 16213 ft | 236 kts | 325° |
| 2026-04-28 21:51 | -16.42303 | 145.52267 | 16452 ft | 238 kts | 326° |
| 2026-04-28 21:51 | -16.41354 | 145.51662 | 16607 ft | 238 kts | 326° |
| 2026-04-28 21:52 | -16.39936 | 145.50758 | 16833 ft | 239 kts | 325° |
| 2026-04-28 21:52 | -16.38047 | 145.49554 | 17129 ft | 240 kts | 326° |
| 2026-04-28 21:52 | -16.36610 | 145.48639 | 17343 ft | 241 kts | 326° |
| 2026-04-28 21:52 | -16.35177 | 145.47726 | 17555 ft | 243 kts | 326° |
| 2026-04-28 21:53 | -16.33717 | 145.46796 | 17748 ft | 244 kts | 325° |
| 2026-04-28 21:53 | -16.32267 | 145.45872 | 17934 ft | 246 kts | 325° |
| 2026-04-28 21:53 | -16.31285 | 145.45248 | 18072 ft | 246 kts | 325° |
| 2026-04-28 21:53 | -16.29316 | 145.43994 | 18308 ft | 249 kts | 325° |
| 2026-04-28 21:54 | -16.27846 | 145.43059 | 18511 ft | 249 kts | 324° |
| 2026-04-28 21:54 | -16.26849 | 145.42425 | 18624 ft | 250 kts | 325° |
| 2026-04-28 21:54 | -16.24861 | 145.41161 | 18852 ft | 252 kts | 325° |
| 2026-04-28 21:54 | -16.23362 | 145.40207 | 19028 ft | 253 kts | 325° |
| 2026-04-28 21:55 | -16.21860 | 145.39252 | 19193 ft | 254 kts | 324° |
| 2026-04-28 21:55 | -16.20846 | 145.38608 | 19296 ft | 254 kts | 324° |
| 2026-04-28 21:55 | -16.18823 | 145.37321 | 19525 ft | 255 kts | 325° |
| 2026-04-28 21:55 | -16.17289 | 145.36346 | 19695 ft | 256 kts | 324° |
| 2026-04-28 21:56 | -16.15772 | 145.35382 | 19823 ft | 258 kts | 324° |
| 2026-04-28 21:56 | -16.14748 | 145.34732 | 19933 ft | 258 kts | 324° |
| 2026-04-28 21:56 | -16.12688 | 145.33424 | 20121 ft | 260 kts | 324° |
| 2026-04-28 21:56 | -16.11137 | 145.32445 | 20344 ft | 257 kts | 326° |
| 2026-04-28 21:57 | -16.09570 | 145.31537 | 20552 ft | 256 kts | 327° |
| 2026-04-28 21:57 | -16.08006 | 145.30664 | 20734 ft | 255 kts | 327° |
| 2026-04-28 21:57 | -16.06429 | 145.29782 | 20899 ft | 254 kts | 327° |
| 2026-04-28 21:57 | -16.04886 | 145.28919 | 21044 ft | 253 kts | 327° |
| 2026-04-28 21:58 | -16.03330 | 145.28044 | 21183 ft | 253 kts | 327° |
| 2026-04-28 21:58 | -16.01778 | 145.27170 | 21309 ft | 253 kts | 327° |
| 2026-04-28 21:58 | -16.00212 | 145.26288 | 21430 ft | 253 kts | 327° |
| 2026-04-28 21:58 | -15.98667 | 145.25417 | 21543 ft | 253 kts | 327° |
| 2026-04-28 21:59 | -15.97100 | 145.24533 | 21652 ft | 254 kts | 327° |
| 2026-04-28 21:59 | -15.95551 | 145.23659 | 21760 ft | 254 kts | 327° |
| 2026-04-28 21:59 | -15.94010 | 145.22790 | 21864 ft | 254 kts | 327° |
| 2026-04-28 22:00 | -15.90879 | 145.21024 | 22055 ft | 254 kts | 326° |
| 2026-04-28 22:00 | -15.89308 | 145.20137 | 22141 ft | 254 kts | 326° |
| 2026-04-28 22:00 | -15.88264 | 145.19547 | 22194 ft | 255 kts | 326° |
| 2026-04-28 22:00 | -15.86179 | 145.18370 | 22287 ft | 255 kts | 326° |
| 2026-04-28 22:01 | -15.84607 | 145.17484 | 22361 ft | 255 kts | 326° |
| 2026-04-28 22:01 | -15.83579 | 145.16904 | 22410 ft | 255 kts | 326° |
| 2026-04-28 22:01 | -15.81471 | 145.15715 | 22506 ft | 255 kts | 326° |
| 2026-04-28 22:01 | -15.79918 | 145.14838 | 22578 ft | 255 kts | 326° |
| 2026-04-28 22:02 | -15.78354 | 145.13957 | 22649 ft | 255 kts | 326° |
| 2026-04-28 22:02 | -15.76776 | 145.13068 | 22714 ft | 255 kts | 326° |
| 2026-04-28 22:02 | -15.75742 | 145.12485 | 22759 ft | 255 kts | 326° |
| 2026-04-28 22:02 | -15.73657 | 145.11310 | 22844 ft | 254 kts | 326° |
| 2026-04-28 22:03 | -15.72095 | 145.10429 | 22912 ft | 254 kts | 326° |
| 2026-04-28 22:03 | -15.70530 | 145.09547 | 22978 ft | 254 kts | 326° |
| 2026-04-28 22:03 | -15.68981 | 145.08675 | 23036 ft | 254 kts | 326° |
| 2026-04-28 22:03 | -15.67937 | 145.08087 | 23077 ft | 253 kts | 326° |
| 2026-04-28 22:04 | -15.65874 | 145.06926 | 23154 ft | 253 kts | 326° |
| 2026-04-28 22:04 | -15.64297 | 145.06038 | 23208 ft | 253 kts | 326° |
| 2026-04-28 22:04 | -15.62743 | 145.05162 | 23257 ft | 253 kts | 326° |
| 2026-04-28 22:04 | -15.61197 | 145.04292 | 23300 ft | 253 kts | 326° |
| 2026-04-28 22:05 | -15.59650 | 145.03422 | 23344 ft | 253 kts | 326° |
| 2026-04-28 22:05 | -15.58101 | 145.02550 | 23387 ft | 252 kts | 326° |
| 2026-04-28 22:05 | -15.56563 | 145.01686 | 23430 ft | 252 kts | 326° |
| 2026-04-28 22:05 | -15.54997 | 145.00804 | 23471 ft | 252 kts | 326° |
| 2026-04-28 22:06 | -15.53463 | 144.99942 | 23500 ft | 252 kts | 326° |
| 2026-04-28 22:06 | -15.51926 | 144.99078 | 23536 ft | 252 kts | 326° |
| 2026-04-28 22:06 | -15.50895 | 144.98498 | 23561 ft | 252 kts | 326° |
| 2026-04-28 22:06 | -15.48822 | 144.97333 | 23613 ft | 251 kts | 326° |
| 2026-04-28 22:07 | -15.47285 | 144.96469 | 23649 ft | 251 kts | 326° |
| 2026-04-28 22:07 | -15.45735 | 144.95599 | 23682 ft | 251 kts | 326° |
| 2026-04-28 22:07 | -15.44183 | 144.94727 | 23711 ft | 251 kts | 326° |
| 2026-04-28 22:07 | -15.42657 | 144.93870 | 23777 ft | 249 kts | 326° |
| 2026-04-28 22:08 | -15.41142 | 144.93021 | 23869 ft | 245 kts | 326° |
| 2026-04-28 22:08 | -15.40130 | 144.92453 | 23913 ft | 244 kts | 326° |
| 2026-04-28 22:08 | -15.38147 | 144.91341 | 23968 ft | 242 kts | 326° |
| 2026-04-28 22:08 | -15.37157 | 144.90785 | 23984 ft | 241 kts | 326° |
| 2026-04-28 22:09 | -15.35192 | 144.89685 | 24019 ft | 240 kts | 326° |
| 2026-04-28 22:09 | -15.34225 | 144.89142 | 24029 ft | 240 kts | 326° |
| 2026-04-28 22:09 | -15.32181 | 144.87994 | 24052 ft | 261 kts | 326° |
| 2026-04-28 22:09 | -15.30516 | 144.87056 | 24055 ft | 280 kts | 327° |
| 2026-04-28 22:10 | -15.28759 | 144.86067 | 24049 ft | 298 kts | 327° |
| 2026-04-28 22:10 | -15.26872 | 144.85005 | 24042 ft | 315 kts | 327° |
| 2026-04-28 22:10 | -15.25556 | 144.84267 | 24039 ft | 326 kts | 327° |
| 2026-04-28 22:10 | -15.22874 | 144.82762 | 24027 ft | 329 kts | 327° |
| 2026-04-28 22:11 | -15.20824 | 144.81612 | 24032 ft | 336 kts | 327° |
| 2026-04-28 22:11 | -15.18757 | 144.80453 | 24023 ft | 341 kts | 327° |
| 2026-04-28 22:11 | -15.16649 | 144.79272 | 24022 ft | 344 kts | 327° |
| 2026-04-28 22:11 | -15.14550 | 144.78099 | 24019 ft | 345 kts | 327° |
| 2026-04-28 22:12 | -15.12412 | 144.76901 | 24020 ft | 346 kts | 327° |
| 2026-04-28 22:12 | -15.10304 | 144.75722 | 24022 ft | 348 kts | 328° |
| 2026-04-28 22:12 | -15.08875 | 144.74922 | 24024 ft | 349 kts | 327° |
| 2026-04-28 22:12 | -15.06023 | 144.73328 | 24024 ft | 350 kts | 328° |
| 2026-04-28 22:13 | -15.03846 | 144.72110 | 24024 ft | 351 kts | 328° |
| 2026-04-28 22:13 | -15.01695 | 144.70908 | 24021 ft | 351 kts | 328° |
| 2026-04-28 22:13 | -15.00278 | 144.70116 | 24021 ft | 350 kts | 327° |
| 2026-04-28 22:13 | -14.97390 | 144.68503 | 24020 ft | 350 kts | 327° |
| 2026-04-28 22:14 | -14.95949 | 144.67697 | 24018 ft | 350 kts | 327° |
| 2026-04-28 22:14 | -14.93790 | 144.66490 | 24016 ft | 350 kts | 328° |
| 2026-04-28 22:14 | -14.90925 | 144.64891 | 24019 ft | 350 kts | 327° |
| 2026-04-28 22:14 | -14.88767 | 144.63686 | 24015 ft | 350 kts | 327° |
| 2026-04-28 22:15 | -14.86639 | 144.62499 | 24014 ft | 350 kts | 327° |
| 2026-04-28 22:15 | -14.84492 | 144.61299 | 24009 ft | 350 kts | 327° |
| 2026-04-28 22:15 | -14.82349 | 144.60104 | 24012 ft | 349 kts | 327° |
| 2026-04-28 22:15 | -14.80218 | 144.58916 | 24012 ft | 349 kts | 328° |
| 2026-04-28 22:16 | -14.78778 | 144.58112 | 24003 ft | 349 kts | 328° |
| 2026-04-28 22:16 | -14.75920 | 144.56519 | 24001 ft | 349 kts | 327° |
| 2026-04-28 22:16 | -14.73769 | 144.55319 | 24004 ft | 348 kts | 327° |
| 2026-04-28 22:16 | -14.72360 | 144.54533 | 24005 ft | 349 kts | 327° |
| 2026-04-28 22:17 | -14.69520 | 144.52951 | 24002 ft | 349 kts | 328° |
| 2026-04-28 22:17 | -14.67356 | 144.51746 | 23998 ft | 349 kts | 328° |
| 2026-04-28 22:17 | -14.65931 | 144.50952 | 23998 ft | 349 kts | 328° |
| 2026-04-28 22:17 | -14.63079 | 144.49364 | 23994 ft | 349 kts | 327° |
| 2026-04-28 22:18 | -14.61668 | 144.48579 | 23993 ft | 348 kts | 328° |
| 2026-04-28 22:18 | -14.58809 | 144.46991 | 23995 ft | 349 kts | 328° |
| 2026-04-28 22:18 | -14.56659 | 144.45798 | 23995 ft | 349 kts | 327° |
| 2026-04-28 22:18 | -14.54527 | 144.44614 | 23995 ft | 349 kts | 328° |
| 2026-04-28 22:19 | -14.52360 | 144.43410 | 23991 ft | 349 kts | 328° |
| 2026-04-28 22:19 | -14.50240 | 144.42233 | 23993 ft | 348 kts | 328° |
| 2026-04-28 22:19 | -14.48102 | 144.41046 | 23994 ft | 348 kts | 327° |
| 2026-04-28 22:19 | -14.45941 | 144.39847 | 23993 ft | 348 kts | 328° |
| 2026-04-28 22:20 | -14.43809 | 144.38664 | 23987 ft | 349 kts | 328° |
| 2026-04-28 22:20 | -14.41664 | 144.37474 | 23987 ft | 349 kts | 328° |
| 2026-04-28 22:20 | -14.39540 | 144.36296 | 23989 ft | 349 kts | 328° |
| 2026-04-28 22:20 | -14.37371 | 144.35094 | 23992 ft | 349 kts | 328° |
| 2026-04-28 22:21 | -14.35959 | 144.34311 | 23994 ft | 349 kts | 328° |
| 2026-04-28 22:21 | -14.33098 | 144.32726 | 23991 ft | 349 kts | 328° |
| 2026-04-28 22:21 | -14.30930 | 144.31525 | 23988 ft | 350 kts | 328° |
| 2026-04-28 22:21 | -14.28788 | 144.30337 | 23986 ft | 350 kts | 328° |
| 2026-04-28 22:22 | -14.26641 | 144.29149 | 23986 ft | 350 kts | 328° |
| 2026-04-28 22:22 | -14.24485 | 144.27954 | 23986 ft | 351 kts | 328° |
| 2026-04-28 22:22 | -14.23037 | 144.27153 | 23986 ft | 351 kts | 328° |
| 2026-04-28 22:22 | -14.20153 | 144.25557 | 23987 ft | 351 kts | 328° |
| 2026-04-28 22:23 | -14.18020 | 144.24376 | 23985 ft | 351 kts | 328° |
| 2026-04-28 22:23 | -14.15845 | 144.23173 | 23984 ft | 351 kts | 328° |
| 2026-04-28 22:23 | -14.13700 | 144.21986 | 23982 ft | 351 kts | 328° |
| 2026-04-28 22:23 | -14.11540 | 144.20792 | 23984 ft | 352 kts | 328° |
| 2026-04-28 22:24 | -14.10094 | 144.19992 | 23984 ft | 351 kts | 328° |
| 2026-04-28 22:24 | -14.07923 | 144.18793 | 23982 ft | 350 kts | 328° |
| 2026-04-28 22:24 | -14.05776 | 144.17606 | 23982 ft | 350 kts | 328° |
| 2026-04-28 22:24 | -14.03637 | 144.16425 | 23983 ft | 350 kts | 328° |
| 2026-04-28 22:25 | -14.01486 | 144.15236 | 23985 ft | 350 kts | 328° |
| 2026-04-28 22:25 | -13.99335 | 144.14047 | 23986 ft | 351 kts | 328° |
| 2026-04-28 22:25 | -13.97190 | 144.12863 | 23986 ft | 351 kts | 328° |
| 2026-04-28 22:25 | -13.95025 | 144.11668 | 23986 ft | 350 kts | 328° |
| 2026-04-28 22:26 | -13.92154 | 144.10083 | 23983 ft | 350 kts | 328° |
| 2026-04-28 22:26 | -13.90713 | 144.09288 | 23986 ft | 350 kts | 328° |
| 2026-04-28 22:26 | -13.87841 | 144.07703 | 23985 ft | 349 kts | 328° |
| 2026-04-28 22:26 | -13.86400 | 144.06908 | 23982 ft | 349 kts | 328° |
| 2026-04-28 22:27 | -13.83541 | 144.05331 | 23975 ft | 349 kts | 328° |
| 2026-04-28 22:27 | -13.82132 | 144.04555 | 23986 ft | 348 kts | 328° |
| 2026-04-28 22:27 | -13.79265 | 144.02974 | 23986 ft | 348 kts | 328° |
| 2026-04-28 22:27 | -13.77143 | 144.01805 | 23983 ft | 348 kts | 328° |
| 2026-04-28 22:28 | -13.74987 | 144.00617 | 23980 ft | 348 kts | 328° |
| 2026-04-28 22:28 | -13.72855 | 143.99442 | 23981 ft | 348 kts | 328° |
| 2026-04-28 22:28 | -13.71424 | 143.98654 | 23983 ft | 348 kts | 328° |
| 2026-04-28 22:28 | -13.69294 | 143.97481 | 23982 ft | 348 kts | 328° |
| 2026-04-28 22:29 | -13.67137 | 143.96294 | 23979 ft | 348 kts | 328° |
| 2026-04-28 22:29 | -13.64992 | 143.95113 | 23980 ft | 348 kts | 328° |
| 2026-04-28 22:29 | -13.62844 | 143.93930 | 23975 ft | 349 kts | 328° |
| 2026-04-28 22:29 | -13.60009 | 143.92371 | 23976 ft | 349 kts | 328° |
| 2026-04-28 22:30 | -13.57864 | 143.91191 | 23975 ft | 349 kts | 329° |
| 2026-04-28 22:30 | -13.56438 | 143.90407 | 23979 ft | 349 kts | 329° |
| 2026-04-28 22:30 | -13.54283 | 143.89221 | 23978 ft | 349 kts | 328° |
| 2026-04-28 22:30 | -13.52135 | 143.88040 | 23975 ft | 349 kts | 328° |
| 2026-04-28 22:31 | -13.49972 | 143.86852 | 23975 ft | 350 kts | 329° |
| 2026-04-28 22:31 | -13.47838 | 143.85680 | 23973 ft | 350 kts | 328° |
| 2026-04-28 22:31 | -13.45664 | 143.84485 | 23969 ft | 351 kts | 328° |
| 2026-04-28 22:31 | -13.43516 | 143.83305 | 23970 ft | 351 kts | 328° |
| 2026-04-28 22:32 | -13.41342 | 143.82111 | 23966 ft | 351 kts | 329° |
| 2026-04-28 22:32 | -13.39197 | 143.80933 | 23967 ft | 350 kts | 328° |
| 2026-04-28 22:32 | -13.37026 | 143.79741 | 23966 ft | 349 kts | 329° |
| 2026-04-28 22:32 | -13.34888 | 143.78567 | 23966 ft | 349 kts | 329° |
| 2026-04-28 22:33 | -13.32723 | 143.77379 | 23970 ft | 348 kts | 329° |
| 2026-04-28 22:33 | -13.30604 | 143.76216 | 23974 ft | 348 kts | 329° |
| 2026-04-28 22:33 | -13.28458 | 143.75040 | 23976 ft | 347 kts | 329° |
| 2026-04-28 22:33 | -13.25600 | 143.73473 | 23977 ft | 346 kts | 329° |
| 2026-04-28 22:34 | -13.24184 | 143.72696 | 23978 ft | 346 kts | 329° |
| 2026-04-28 22:34 | -13.22053 | 143.71527 | 23976 ft | 346 kts | 329° |
| 2026-04-28 22:34 | -13.19918 | 143.70357 | 23976 ft | 345 kts | 329° |
| 2026-04-28 22:34 | -13.17815 | 143.69205 | 23977 ft | 345 kts | 329° |
| 2026-04-28 22:35 | -13.15678 | 143.68033 | 23975 ft | 345 kts | 329° |
| 2026-04-28 22:35 | -13.13554 | 143.66870 | 23976 ft | 345 kts | 329° |
| 2026-04-28 22:35 | -13.11403 | 143.65692 | 23975 ft | 345 kts | 329° |
| 2026-04-28 22:35 | -13.09266 | 143.64522 | 23974 ft | 346 kts | 329° |
| 2026-04-28 22:36 | -13.07135 | 143.63354 | 23972 ft | 346 kts | 329° |
| 2026-04-28 22:36 | -13.05018 | 143.62196 | 23969 ft | 346 kts | 329° |
| 2026-04-28 22:36 | -13.02170 | 143.60638 | 23967 ft | 346 kts | 329° |
| 2026-04-28 22:36 | -13.00747 | 143.59859 | 23969 ft | 346 kts | 329° |
| 2026-04-28 22:37 | -12.98593 | 143.58681 | 23966 ft | 346 kts | 329° |
| 2026-04-28 22:37 | -12.96466 | 143.57518 | 23966 ft | 346 kts | 329° |
| 2026-04-28 22:37 | -12.94359 | 143.56364 | 23966 ft | 346 kts | 329° |
| 2026-04-28 22:37 | -12.92228 | 143.55200 | 23964 ft | 346 kts | 329° |
| 2026-04-28 22:38 | -12.90068 | 143.54019 | 23967 ft | 346 kts | 329° |
| 2026-04-28 22:38 | -12.87954 | 143.52864 | 23965 ft | 346 kts | 329° |
| 2026-04-28 22:38 | -12.85800 | 143.51688 | 23964 ft | 346 kts | 329° |
| 2026-04-28 22:38 | -12.83672 | 143.50525 | 23965 ft | 346 kts | 329° |
| 2026-04-28 22:39 | -12.81553 | 143.49368 | 23966 ft | 346 kts | 329° |
| 2026-04-28 22:39 | -12.79384 | 143.48184 | 23967 ft | 346 kts | 329° |
| 2026-04-28 22:39 | -12.77232 | 143.47009 | 23967 ft | 347 kts | 329° |
| 2026-04-28 22:39 | -12.75083 | 143.45836 | 23968 ft | 347 kts | 329° |
| 2026-04-28 22:40 | -12.72951 | 143.44672 | 23966 ft | 347 kts | 329° |
| 2026-04-28 22:40 | -12.70862 | 143.43443 | 23969 ft | 346 kts | 325° |
| 2026-04-28 22:40 | -12.68827 | 143.42091 | 23969 ft | 346 kts | 324° |
| 2026-04-28 22:40 | -12.66817 | 143.40739 | 23968 ft | 346 kts | 324° |
| 2026-04-28 22:41 | -12.64790 | 143.39377 | 23967 ft | 347 kts | 324° |
| 2026-04-28 22:41 | -12.62755 | 143.38013 | 23968 ft | 347 kts | 324° |
| 2026-04-28 22:41 | -12.60730 | 143.36656 | 23969 ft | 347 kts | 324° |
| 2026-04-28 22:41 | -12.58711 | 143.35304 | 23969 ft | 347 kts | 324° |
| 2026-04-28 22:42 | -12.56685 | 143.33948 | 23971 ft | 347 kts | 324° |
| 2026-04-28 22:42 | -12.54653 | 143.32590 | 23971 ft | 348 kts | 324° |
| 2026-04-28 22:42 | -12.52603 | 143.31220 | 23970 ft | 348 kts | 324° |
| 2026-04-28 22:42 | -12.49896 | 143.29410 | 23971 ft | 348 kts | 324° |
| 2026-04-28 22:43 | -12.48549 | 143.28511 | 23968 ft | 348 kts | 324° |
| 2026-04-28 22:43 | -12.46515 | 143.27153 | 23968 ft | 349 kts | 324° |
| 2026-04-28 22:43 | -12.44476 | 143.25792 | 23968 ft | 349 kts | 324° |
| 2026-04-28 22:43 | -12.42423 | 143.24422 | 23970 ft | 349 kts | 324° |
| 2026-04-28 22:44 | -12.40389 | 143.23065 | 23968 ft | 349 kts | 324° |
| 2026-04-28 22:44 | -12.38347 | 143.21703 | 23969 ft | 349 kts | 324° |
| 2026-04-28 22:44 | -12.36309 | 143.20343 | 23971 ft | 349 kts | 324° |
| 2026-04-28 22:44 | -12.34270 | 143.18985 | 23970 ft | 349 kts | 324° |
| 2026-04-28 22:45 | -12.32248 | 143.17636 | 23969 ft | 349 kts | 324° |
| 2026-04-28 22:45 | -12.30191 | 143.16266 | 23969 ft | 349 kts | 324° |
| 2026-04-28 22:45 | -12.28152 | 143.14906 | 23970 ft | 349 kts | 324° |
| 2026-04-28 22:45 | -12.26124 | 143.13556 | 23969 ft | 349 kts | 324° |
| 2026-04-28 22:46 | -12.24076 | 143.12192 | 23970 ft | 350 kts | 324° |
| 2026-04-28 22:46 | -12.22006 | 143.10814 | 23973 ft | 349 kts | 324° |
| 2026-04-28 22:46 | -12.19982 | 143.09465 | 23972 ft | 350 kts | 324° |
| 2026-04-28 22:46 | -12.17937 | 143.08104 | 23970 ft | 350 kts | 324° |
| 2026-04-28 22:47 | -12.15876 | 143.06732 | 23970 ft | 350 kts | 324° |
| 2026-04-28 22:47 | -12.13832 | 143.05373 | 23970 ft | 350 kts | 324° |
| 2026-04-28 22:47 | -12.11786 | 143.04010 | 23970 ft | 350 kts | 324° |
| 2026-04-28 22:47 | -12.09052 | 143.02191 | 23970 ft | 350 kts | 324° |
| 2026-04-28 22:48 | -12.07688 | 143.01283 | 23970 ft | 350 kts | 324° |
| 2026-04-28 22:48 | -12.05639 | 142.99919 | 23971 ft | 350 kts | 324° |
| 2026-04-28 22:48 | -12.03599 | 142.98563 | 23970 ft | 350 kts | 324° |
| 2026-04-28 22:48 | -12.01543 | 142.97197 | 23968 ft | 350 kts | 324° |
| 2026-04-28 22:49 | -11.99494 | 142.95837 | 23965 ft | 350 kts | 324° |
| 2026-04-28 22:49 | -11.97444 | 142.94476 | 23966 ft | 350 kts | 324° |
| 2026-04-28 22:49 | -11.95397 | 142.93117 | 23963 ft | 350 kts | 324° |
| 2026-04-28 22:49 | -11.93341 | 142.91754 | 23962 ft | 351 kts | 324° |
| 2026-04-28 22:50 | -11.91280 | 142.90385 | 23961 ft | 351 kts | 324° |
| 2026-04-28 22:50 | -11.88529 | 142.88557 | 23953 ft | 351 kts | 324° |
| 2026-04-28 22:50 | -11.87174 | 142.87657 | 23951 ft | 351 kts | 324° |
| 2026-04-28 22:50 | -11.85120 | 142.86295 | 23950 ft | 351 kts | 324° |
| 2026-04-28 22:51 | -11.83056 | 142.84924 | 23948 ft | 351 kts | 324° |
| 2026-04-28 22:51 | -11.80998 | 142.83559 | 23950 ft | 351 kts | 324° |
| 2026-04-28 22:51 | -11.78972 | 142.82214 | 23925 ft | 352 kts | 324° |
| 2026-04-28 22:51 | -11.76878 | 142.80823 | 23625 ft | 355 kts | 324° |
| 2026-04-28 22:52 | -11.74802 | 142.79440 | 23266 ft | 356 kts | 324° |
| 2026-04-28 22:52 | -11.72721 | 142.78059 | 22888 ft | 355 kts | 324° |
| 2026-04-28 22:52 | -11.70669 | 142.76704 | 22514 ft | 355 kts | 324° |
| 2026-04-28 22:52 | -11.68595 | 142.75331 | 22132 ft | 353 kts | 324° |
| 2026-04-28 22:53 | -11.66533 | 142.73961 | 21756 ft | 350 kts | 324° |
| 2026-04-28 22:53 | -11.64501 | 142.72613 | 21383 ft | 348 kts | 324° |
| 2026-04-28 22:53 | -11.62464 | 142.71263 | 21008 ft | 346 kts | 324° |
| 2026-04-28 22:53 | -11.60451 | 142.69928 | 20638 ft | 344 kts | 325° |
| 2026-04-28 22:54 | -11.58440 | 142.68594 | 20267 ft | 342 kts | 325° |
| 2026-04-28 22:54 | -11.56431 | 142.67265 | 19899 ft | 342 kts | 325° |
| 2026-04-28 22:54 | -11.54430 | 142.65939 | 19531 ft | 342 kts | 325° |
| 2026-04-28 22:54 | -11.52444 | 142.64625 | 19166 ft | 342 kts | 325° |
| 2026-04-28 22:55 | -11.49795 | 142.62872 | 18677 ft | 341 kts | 325° |
| 2026-04-28 22:55 | -11.48460 | 142.61989 | 18431 ft | 340 kts | 325° |
| 2026-04-28 22:55 | -11.46475 | 142.60677 | 18065 ft | 339 kts | 325° |
| 2026-04-28 22:55 | -11.44471 | 142.59351 | 17694 ft | 338 kts | 325° |
| 2026-04-28 22:56 | -11.42507 | 142.58052 | 17332 ft | 337 kts | 326° |
| 2026-04-28 22:56 | -11.40523 | 142.56741 | 16973 ft | 335 kts | 326° |
| 2026-04-28 22:56 | -11.38562 | 142.55444 | 16614 ft | 334 kts | 326° |
| 2026-04-28 22:56 | -11.36616 | 142.54158 | 16255 ft | 333 kts | 326° |
| 2026-04-28 22:57 | -11.34665 | 142.52869 | 15897 ft | 332 kts | 326° |
| 2026-04-28 22:57 | -11.32741 | 142.51598 | 15545 ft | 330 kts | 326° |
| 2026-04-28 22:57 | -11.30814 | 142.50325 | 15192 ft | 329 kts | 326° |
| 2026-04-28 22:57 | -11.28874 | 142.49043 | 14830 ft | 328 kts | 326° |
| 2026-04-28 22:58 | -11.26956 | 142.47777 | 14475 ft | 326 kts | 326° |
| 2026-04-28 22:58 | -11.24432 | 142.46111 | 14008 ft | 324 kts | 326° |
| 2026-04-28 22:58 | -11.23169 | 142.45277 | 13774 ft | 323 kts | 326° |
| 2026-04-28 22:58 | -11.21303 | 142.44046 | 13427 ft | 320 kts | 326° |
| 2026-04-28 22:59 | -11.19422 | 142.42802 | 13076 ft | 317 kts | 326° |
| 2026-04-28 22:59 | -11.17567 | 142.41580 | 12729 ft | 315 kts | 326° |
| 2026-04-28 22:59 | -11.15741 | 142.40375 | 12391 ft | 312 kts | 326° |
| 2026-04-28 22:59 | -11.13926 | 142.39177 | 12053 ft | 310 kts | 326° |
| 2026-04-28 23:00 | -11.12110 | 142.37979 | 11716 ft | 308 kts | 326° |
| 2026-04-28 23:00 | -11.10304 | 142.36787 | 11382 ft | 306 kts | 326° |
| 2026-04-28 23:00 | -11.08525 | 142.35616 | 11055 ft | 303 kts | 326° |
| 2026-04-28 23:00 | -11.06766 | 142.34456 | 10744 ft | 300 kts | 326° |
| 2026-04-28 23:01 | -11.05025 | 142.33307 | 10422 ft | 294 kts | 326° |
| 2026-04-28 23:01 | -11.03324 | 142.32184 | 10108 ft | 286 kts | 326° |
| 2026-04-28 23:01 | -11.01658 | 142.31085 | 9806 ft | 280 kts | 325° |
| 2026-04-28 23:01 | -11.00036 | 142.30016 | 9512 ft | 276 kts | 326° |
| 2026-04-28 23:02 | -10.98416 | 142.28949 | 9215 ft | 275 kts | 326° |
| 2026-04-28 23:02 | -10.96799 | 142.27884 | 8918 ft | 275 kts | 326° |
| 2026-04-28 23:02 | -10.95182 | 142.26819 | 8621 ft | 275 kts | 326° |
| 2026-04-28 23:02 | -10.93568 | 142.25755 | 8325 ft | 276 kts | 326° |
| 2026-04-28 23:03 | -10.91934 | 142.24680 | 8022 ft | 276 kts | 327° |
| 2026-04-28 23:03 | -10.90330 | 142.23622 | 7715 ft | 269 kts | 327° |
| 2026-04-28 23:03 | -10.88771 | 142.22592 | 7430 ft | 266 kts | 327° |
| 2026-04-28 23:03 | -10.87227 | 142.21579 | 7152 ft | 268 kts | 328° |
| 2026-04-28 23:04 | -10.85646 | 142.20538 | 6861 ft | 269 kts | 328° |
| 2026-04-28 23:04 | -10.82482 | 142.18455 | 6270 ft | 267 kts | 328° |
| 2026-04-28 23:04 | -10.80450 | 142.17114 | 5890 ft | 258 kts | 328° |
| 2026-04-28 23:05 | -10.79446 | 142.16452 | 5705 ft | 254 kts | 328° |
| 2026-04-28 23:05 | -10.77956 | 142.15469 | 5430 ft | 248 kts | 329° |
| 2026-04-28 23:05 | -10.76523 | 142.14525 | 5166 ft | 243 kts | 329° |
| 2026-04-28 23:05 | -10.75104 | 142.13592 | 4909 ft | 240 kts | 329° |
| 2026-04-28 23:06 | -10.73699 | 142.12669 | 4652 ft | 238 kts | 329° |
| 2026-04-28 23:06 | -10.72319 | 142.11763 | 4399 ft | 236 kts | 330° |
| 2026-04-28 23:06 | -10.70927 | 142.10847 | 4147 ft | 235 kts | 329° |
| 2026-04-28 23:06 | -10.69547 | 142.09943 | 3888 ft | 235 kts | 330° |
| 2026-04-28 23:07 | -10.68066 | 142.09338 | 3594 ft | 225 kts | 1° |
| 2026-04-28 23:07 | -10.66560 | 142.09564 | 3384 ft | 217 kts | 19° |
| 2026-04-28 23:07 | -10.65097 | 142.09950 | 3152 ft | 220 kts | 19° |
| 2026-04-28 23:07 | -10.63615 | 142.10349 | 2914 ft | 220 kts | 19° |
| 2026-04-28 23:08 | -10.62116 | 142.10751 | 2678 ft | 218 kts | 19° |
| 2026-04-28 23:08 | -10.60816 | 142.11386 | 2630 ft | 203 kts | 50° |
| 2026-04-28 23:08 | -10.60251 | 142.12654 | 2575 ft | 198 kts | 81° |
| 2026-04-28 23:08 | -10.60059 | 142.14053 | 2422 ft | 198 kts | 84° |
| 2026-04-28 23:09 | -10.59897 | 142.15399 | 2233 ft | 185 kts | 84° |
| 2026-04-28 23:09 | -10.59759 | 142.16635 | 2072 ft | 169 kts | 85° |
| 2026-04-28 23:09 | -10.59639 | 142.17781 | 1899 ft | 160 kts | 86° |
| 2026-04-28 23:09 | -10.59535 | 142.18877 | 1734 ft | 151 kts | 86° |
| 2026-04-28 23:10 | -10.59433 | 142.19914 | 1564 ft | 141 kts | 86° |
| 2026-04-28 23:10 | -10.59341 | 142.20894 | 1401 ft | 137 kts | 87° |
| 2026-04-28 23:10 | -10.59256 | 142.21861 | 1217 ft | 138 kts | 87° |
| 2026-04-28 23:10 | -10.59170 | 142.22815 | 1046 ft | 132 kts | 87° |
| 2026-04-28 23:11 | -10.59085 | 142.23703 | 852 ft | 125 kts | 88° |
| 2026-04-28 23:11 | -10.59015 | 142.24600 | 721 ft | 127 kts | 88° |
| 2026-04-28 23:11 | -10.58923 | 142.25502 | 593 ft | 127 kts | 85° |
| 2026-04-28 23:11 | -10.58816 | 142.26393 | 435 ft | 128 kts | 87° |
| 2026-04-28 23:12 | -10.58738 | 142.27307 | 255 ft | 133 kts | 88° |
| 2026-04-28 23:12 | -10.58650 | 142.28242 | 56 ft | 132 kts | 89° |
| 2026-04-28 23:12 | -10.58586 | 142.29038 | 35 ft | 73 kts | 85° |
| 2026-04-28 23:12 | -10.58573 | 142.29275 | 39 ft | 13 kts | 115° |
| 2026-04-28 23:13 | -10.58634 | 142.29338 | 41 ft | 15 kts | 141° |
| 2026-04-28 23:13 | -10.58695 | 142.29390 | 44 ft | 7 kts | 140° |
| 2026-04-28 23:13 | -10.58736 | 142.29425 | 47 ft | 7 kts | 140° |
| 2026-04-28 23:13 | -10.58756 | 142.29443 | 48 ft | 0 kts | 140° |
| 2026-04-28 23:14 | -10.58758 | 142.29445 | 48 ft | 2 kts | 140° |
| 2026-04-28 23:14 | -10.58787 | 142.29469 | 50 ft | 8 kts | 140° |
| 2026-04-28 23:14 | -10.58845 | 142.29517 | 55 ft | 12 kts | 140° |
| 2026-04-28 23:14 | -10.58924 | 142.29565 | 59 ft | 10 kts | 201° |
| 2026-04-28 23:15 | -10.58969 | 142.29515 | 59 ft | 11 kts | 231° |
| 2026-04-28 23:15 | -10.58992 | 142.29486 | 60 ft | 0 kts | 231° |
| 2026-04-28 23:15 | -10.58993 | 142.29485 | 60 ft | 0 kts | 230° |
| 2026-04-28 23:16 | -10.59001 | 142.29478 | 60 ft | 1 kts | 196° |
| 2026-04-28 23:16 | -10.59014 | 142.29485 | 61 ft | 0 kts | 146° |
| 2026-04-28 23:16 | -10.59015 | 142.29485 | 61 ft | 0 kts | 148° |
| 2026-04-28 23:16 | -10.59027 | 142.29489 | 62 ft | 2 kts | 162° |
| 2026-04-28 23:17 | -10.59030 | 142.29489 | 62 ft | 0 kts | 183° |
| 2026-04-28 23:17 | -10.59031 | 142.29489 | 62 ft | 0 kts | 194° |